メインページ
METAR-TAF:

METAR-TAF

空港 :

ウィスラー, ブリティッシュコロンビア州, カナダ

緯度: 50-08N, 経度: 122-57W, 海抜: 658m

現時点の気象観測

当レポートは12時間14分前の01:00(UTC)に作成
南西の風 2kt
気温 2°C
湿度 93%
気圧 1016 hPa
視程: 16.1km
高度700ftの雲は散在している
高度1600ftの千切れ雲あり
高度2400ftの曇り

METAR: CWAE 200100Z 23002KT 10SM SCT007 BKN016 OVC024 02/01 A3001 RMK ST3SC3SC2 LAST OBS/NEXT 201500UTC WND ESTD SLP178

時間: 05:14 (13:14 UTC)


TAF: 見つかりません

4,000以上の空港の気象観測と天気予報(METAR報とTAF報)

利用可能な観測所は地図上に黄色い丸と赤い丸で示す。

丸の上にカーソルを重ねると観測所名を参照できる。

次にクリックすると気象観測と天気予報を参照できる。

マップの切り替え:黒色「×」印の緑ボタンをクリックして拡大、「-」印の緑ボタンをクリックして縮小、緑色の三角印をクリックして隣りの地図に切り替え


METAR-TAF: